sensor_id;sensor_type;location;lat;lon;timestamp;P1;durP1;ratioP1;P2;durP2;ratioP2
82805;SDS011;72558;51.000;-3.112;2023-12-07T00:00:33;9.4;;;2.6;;
82805;SDS011;72558;51.000;-3.112;2023-12-07T00:03:34;10.4;;;2.4;;
82805;SDS011;72558;51.000;-3.112;2023-12-07T00:06:33;8.3;;;2.7;;
82805;SDS011;72558;51.000;-3.112;2023-12-07T00:09:34;9.2;;;2.4;;
82805;SDS011;72558;51.000;-3.112;2023-12-07T00:12:33;9.1;;;2.5;;
82805;SDS011;72558;51.000;-3.112;2023-12-07T00:15:34;8.8;;;2.3;;
82805;SDS011;72558;51.000;-3.112;2023-12-07T00:18:34;8.1;;;2.2;;
82805;SDS011;72558;51.000;-3.112;2023-12-07T00:21:34;7.2;;;2.3;;
82805;SDS011;72558;51.000;-3.112;2023-12-07T00:24:34;8.9;;;2.0;;
82805;SDS011;72558;51.000;-3.112;2023-12-07T00:27:34;7.1;;;2.0;;
82805;SDS011;72558;51.000;-3.112;2023-12-07T00:30:34;9.5;;;2.2;;
82805;SDS011;72558;51.000;-3.112;2023-12-07T00:33:34;8.0;;;2.1;;
82805;SDS011;72558;51.000;-3.112;2023-12-07T00:36:34;11.3;;;2.4;;
82805;SDS011;72558;51.000;-3.112;2023-12-07T00:39:34;10.9;;;2.5;;
82805;SDS011;72558;51.000;-3.112;2023-12-07T00:42:34;10.1;;;2.4;;
82805;SDS011;72558;51.000;-3.112;2023-12-07T00:45:34;9.6;;;2.1;;
82805;SDS011;72558;51.000;-3.112;2023-12-07T00:48:34;11.2;;;2.4;;
82805;SDS011;72558;51.000;-3.112;2023-12-07T00:51:34;10.2;;;2.4;;
82805;SDS011;72558;51.000;-3.112;2023-12-07T00:54:34;8.2;;;2.3;;
82805;SDS011;72558;51.000;-3.112;2023-12-07T00:57:34;9.7;;;2.4;;
82805;SDS011;72558;51.000;-3.112;2023-12-07T01:00:34;6.6;;;1.8;;
82805;SDS011;72558;51.000;-3.112;2023-12-07T01:03:34;7.5;;;1.7;;
82805;SDS011;72558;51.000;-3.112;2023-12-07T01:06:34;6.8;;;1.5;;
82805;SDS011;72558;51.000;-3.112;2023-12-07T01:09:34;5.8;;;1.5;;
82805;SDS011;72558;51.000;-3.112;2023-12-07T01:12:34;5.5;;;1.6;;
82805;SDS011;72558;51.000;-3.112;2023-12-07T01:15:33;5.1;;;1.4;;
82805;SDS011;72558;51.000;-3.112;2023-12-07T01:18:34;4.7;;;1.4;;
82805;SDS011;72558;51.000;-3.112;2023-12-07T01:21:34;4.0;;;1.5;;
82805;SDS011;72558;51.000;-3.112;2023-12-07T01:24:34;4.9;;;1.3;;
82805;SDS011;72558;51.000;-3.112;2023-12-07T01:27:34;4.1;;;1.4;;
82805;SDS011;72558;51.000;-3.112;2023-12-07T01:30:35;5.6;;;1.3;;
82805;SDS011;72558;51.000;-3.112;2023-12-07T01:33:34;4.4;;;1.1;;
82805;SDS011;72558;51.000;-3.112;2023-12-07T01:36:34;6.3;;;1.3;;
82805;SDS011;72558;51.000;-3.112;2023-12-07T01:39:34;5.5;;;1.0;;
82805;SDS011;72558;51.000;-3.112;2023-12-07T01:42:33;5.3;;;1.3;;
82805;SDS011;72558;51.000;-3.112;2023-12-07T01:45:34;3.7;;;1.1;;
82805;SDS011;72558;51.000;-3.112;2023-12-07T01:48:33;4.8;;;1.0;;
82805;SDS011;72558;51.000;-3.112;2023-12-07T01:51:34;5.1;;;1.1;;
82805;SDS011;72558;51.000;-3.112;2023-12-07T01:54:34;4.3;;;1.2;;
82805;SDS011;72558;51.000;-3.112;2023-12-07T01:57:33;4.9;;;0.9;;
82805;SDS011;72558;51.000;-3.112;2023-12-07T02:00:34;4.3;;;1.1;;
82805;SDS011;72558;51.000;-3.112;2023-12-07T02:03:34;4.1;;;1.1;;
82805;SDS011;72558;51.000;-3.112;2023-12-07T02:06:33;3.7;;;0.8;;
82805;SDS011;72558;51.000;-3.112;2023-12-07T02:09:34;2.8;;;0.6;;
82805;SDS011;72558;51.000;-3.112;2023-12-07T02:12:34;4.2;;;1.1;;
82805;SDS011;72558;51.000;-3.112;2023-12-07T02:15:34;3.0;;;1.0;;
82805;SDS011;72558;51.000;-3.112;2023-12-07T02:18:34;4.5;;;1.0;;
82805;SDS011;72558;51.000;-3.112;2023-12-07T02:21:34;2.5;;;0.8;;
82805;SDS011;72558;51.000;-3.112;2023-12-07T02:24:34;4.0;;;0.8;;
82805;SDS011;72558;51.000;-3.112;2023-12-07T02:27:34;3.4;;;0.7;;
82805;SDS011;72558;51.000;-3.112;2023-12-07T02:30:34;2.6;;;0.7;;
82805;SDS011;72558;51.000;-3.112;2023-12-07T02:33:34;2.8;;;0.7;;
82805;SDS011;72558;51.000;-3.112;2023-12-07T02:36:34;2.9;;;0.7;;
82805;SDS011;72558;51.000;-3.112;2023-12-07T02:39:34;3.1;;;0.8;;
82805;SDS011;72558;51.000;-3.112;2023-12-07T02:42:34;2.1;;;0.5;;
82805;SDS011;72558;51.000;-3.112;2023-12-07T02:45:33;2.0;;;0.5;;
82805;SDS011;72558;51.000;-3.112;2023-12-07T02:48:34;1.4;;;0.4;;
82805;SDS011;72558;51.000;-3.112;2023-12-07T02:51:33;1.4;;;0.4;;
82805;SDS011;72558;51.000;-3.112;2023-12-07T02:54:34;1.3;;;0.4;;
82805;SDS011;72558;51.000;-3.112;2023-12-07T02:57:34;2.3;;;0.4;;
82805;SDS011;72558;51.000;-3.112;2023-12-07T03:00:34;1.8;;;0.6;;
82805;SDS011;72558;51.000;-3.112;2023-12-07T03:03:34;1.9;;;0.3;;
82805;SDS011;72558;51.000;-3.112;2023-12-07T03:06:34;1.9;;;0.5;;
82805;SDS011;72558;51.000;-3.112;2023-12-07T03:09:34;2.3;;;0.5;;
82805;SDS011;72558;51.000;-3.112;2023-12-07T03:12:33;1.9;;;0.5;;
82805;SDS011;72558;51.000;-3.112;2023-12-07T03:15:34;2.8;;;0.6;;
82805;SDS011;72558;51.000;-3.112;2023-12-07T03:18:34;4.1;;;0.8;;
82805;SDS011;72558;51.000;-3.112;2023-12-07T03:21:34;3.6;;;1.3;;
82805;SDS011;72558;51.000;-3.112;2023-12-07T03:24:34;4.0;;;1.0;;
82805;SDS011;72558;51.000;-3.112;2023-12-07T03:27:34;4.6;;;1.0;;
82805;SDS011;72558;51.000;-3.112;2023-12-07T03:30:34;5.2;;;1.4;;
82805;SDS011;72558;51.000;-3.112;2023-12-07T03:33:34;4.5;;;1.5;;
82805;SDS011;72558;51.000;-3.112;2023-12-07T03:36:34;7.3;;;1.7;;
82805;SDS011;72558;51.000;-3.112;2023-12-07T03:39:37;5.6;;;1.6;;
82805;SDS011;72558;51.000;-3.112;2023-12-07T03:42:34;8.4;;;2.1;;
82805;SDS011;72558;51.000;-3.112;2023-12-07T03:45:34;7.4;;;1.8;;
82805;SDS011;72558;51.000;-3.112;2023-12-07T03:48:34;7.8;;;2.0;;
82805;SDS011;72558;51.000;-3.112;2023-12-07T03:51:33;10.6;;;2.7;;
82805;SDS011;72558;51.000;-3.112;2023-12-07T03:54:34;9.7;;;2.8;;
82805;SDS011;72558;51.000;-3.112;2023-12-07T03:57:33;12.8;;;3.3;;
82805;SDS011;72558;51.000;-3.112;2023-12-07T04:00:34;9.2;;;2.6;;
82805;SDS011;72558;51.000;-3.112;2023-12-07T04:03:34;9.1;;;2.4;;
82805;SDS011;72558;51.000;-3.112;2023-12-07T04:06:34;10.1;;;3.0;;
82805;SDS011;72558;51.000;-3.112;2023-12-07T04:09:33;9.7;;;2.6;;
82805;SDS011;72558;51.000;-3.112;2023-12-07T04:12:34;9.4;;;2.4;;
82805;SDS011;72558;51.000;-3.112;2023-12-07T04:15:33;7.9;;;2.3;;
82805;SDS011;72558;51.000;-3.112;2023-12-07T04:18:34;7.7;;;2.2;;
82805;SDS011;72558;51.000;-3.112;2023-12-07T04:21:33;7.4;;;2.0;;
82805;SDS011;72558;51.000;-3.112;2023-12-07T04:24:34;7.6;;;2.3;;
82805;SDS011;72558;51.000;-3.112;2023-12-07T04:27:33;6.6;;;1.8;;
82805;SDS011;72558;51.000;-3.112;2023-12-07T04:30:34;7.8;;;1.8;;
82805;SDS011;72558;51.000;-3.112;2023-12-07T04:33:33;6.1;;;1.8;;
82805;SDS011;72558;51.000;-3.112;2023-12-07T04:36:34;4.6;;;1.6;;
82805;SDS011;72558;51.000;-3.112;2023-12-07T04:39:33;6.4;;;2.0;;
82805;SDS011;72558;51.000;-3.112;2023-12-07T04:42:33;5.3;;;1.7;;
82805;SDS011;72558;51.000;-3.112;2023-12-07T04:45:34;6.2;;;2.0;;
82805;SDS011;72558;51.000;-3.112;2023-12-07T04:48:34;7.7;;;1.9;;
82805;SDS011;72558;51.000;-3.112;2023-12-07T04:51:34;6.8;;;2.3;;
82805;SDS011;72558;51.000;-3.112;2023-12-07T04:54:34;9.0;;;1.8;;
82805;SDS011;72558;51.000;-3.112;2023-12-07T04:57:34;6.2;;;1.5;;
82805;SDS011;72558;51.000;-3.112;2023-12-07T05:00:33;5.6;;;1.4;;
82805;SDS011;72558;51.000;-3.112;2023-12-07T05:03:34;6.0;;;1.8;;
82805;SDS011;72558;51.000;-3.112;2023-12-07T05:06:33;4.5;;;1.4;;
82805;SDS011;72558;51.000;-3.112;2023-12-07T05:09:34;4.3;;;1.5;;
82805;SDS011;72558;51.000;-3.112;2023-12-07T05:12:34;4.4;;;1.6;;
82805;SDS011;72558;51.000;-3.112;2023-12-07T05:15:34;6.0;;;1.6;;
82805;SDS011;72558;51.000;-3.112;2023-12-07T05:18:34;5.4;;;1.7;;
82805;SDS011;72558;51.000;-3.112;2023-12-07T05:21:34;6.1;;;1.7;;
82805;SDS011;72558;51.000;-3.112;2023-12-07T05:24:34;6.3;;;2.1;;
82805;SDS011;72558;51.000;-3.112;2023-12-07T05:27:34;7.5;;;2.2;;
82805;SDS011;72558;51.000;-3.112;2023-12-07T05:30:34;8.3;;;2.1;;
82805;SDS011;72558;51.000;-3.112;2023-12-07T05:33:34;8.8;;;2.6;;
82805;SDS011;72558;51.000;-3.112;2023-12-07T05:36:33;7.7;;;2.6;;
82805;SDS011;72558;51.000;-3.112;2023-12-07T05:39:34;10.3;;;2.6;;
82805;SDS011;72558;51.000;-3.112;2023-12-07T05:42:33;10.5;;;2.6;;
82805;SDS011;72558;51.000;-3.112;2023-12-07T05:45:34;9.0;;;2.9;;
82805;SDS011;72558;51.000;-3.112;2023-12-07T05:48:33;11.9;;;2.8;;
82805;SDS011;72558;51.000;-3.112;2023-12-07T05:51:34;8.1;;;2.4;;
82805;SDS011;72558;51.000;-3.112;2023-12-07T05:54:33;11.2;;;2.6;;
82805;SDS011;72558;51.000;-3.112;2023-12-07T05:57:34;10.5;;;2.5;;
82805;SDS011;72558;51.000;-3.112;2023-12-07T06:00:33;10.6;;;2.7;;
82805;SDS011;72558;51.000;-3.112;2023-12-07T06:03:34;9.5;;;2.3;;
82805;SDS011;72558;51.000;-3.112;2023-12-07T06:06:34;6.3;;;2.1;;
82805;SDS011;72558;51.000;-3.112;2023-12-07T06:09:34;6.3;;;2.0;;
82805;SDS011;72558;51.000;-3.112;2023-12-07T06:12:34;5.8;;;1.9;;
82805;SDS011;72558;51.000;-3.112;2023-12-07T06:15:34;6.4;;;1.8;;
82805;SDS011;72558;51.000;-3.112;2023-12-07T06:18:34;7.1;;;1.9;;
82805;SDS011;72558;51.000;-3.112;2023-12-07T06:21:34;4.1;;;1.3;;
82805;SDS011;72558;51.000;-3.112;2023-12-07T06:24:34;5.6;;;1.6;;
82805;SDS011;72558;51.000;-3.112;2023-12-07T06:27:34;7.8;;;1.4;;
82805;SDS011;72558;51.000;-3.112;2023-12-07T06:30:34;5.6;;;1.7;;
82805;SDS011;72558;51.000;-3.112;2023-12-07T06:33:34;7.5;;;1.5;;
82805;SDS011;72558;51.000;-3.112;2023-12-07T06:36:34;6.3;;;1.8;;
82805;SDS011;72558;51.000;-3.112;2023-12-07T06:39:33;6.2;;;1.3;;
82805;SDS011;72558;51.000;-3.112;2023-12-07T06:42:34;6.8;;;1.7;;
82805;SDS011;72558;51.000;-3.112;2023-12-07T06:45:34;7.8;;;1.8;;
82805;SDS011;72558;51.000;-3.112;2023-12-07T06:48:34;6.9;;;2.0;;
82805;SDS011;72558;51.000;-3.112;2023-12-07T06:51:34;7.1;;;1.9;;
82805;SDS011;72558;51.000;-3.112;2023-12-07T06:54:33;8.4;;;1.8;;
82805;SDS011;72558;51.000;-3.112;2023-12-07T06:57:34;8.4;;;2.1;;
82805;SDS011;72558;51.000;-3.112;2023-12-07T07:00:34;5.3;;;1.8;;
82805;SDS011;72558;51.000;-3.112;2023-12-07T07:03:34;6.4;;;1.6;;
82805;SDS011;72558;51.000;-3.112;2023-12-07T07:06:34;6.1;;;1.8;;
82805;SDS011;72558;51.000;-3.112;2023-12-07T07:09:33;7.6;;;1.5;;
82805;SDS011;72558;51.000;-3.112;2023-12-07T07:12:34;7.0;;;1.3;;
82805;SDS011;72558;51.000;-3.112;2023-12-07T07:15:34;6.4;;;1.5;;
82805;SDS011;72558;51.000;-3.112;2023-12-07T07:18:34;7.8;;;1.4;;
82805;SDS011;72558;51.000;-3.112;2023-12-07T07:21:34;6.6;;;1.4;;
82805;SDS011;72558;51.000;-3.112;2023-12-07T07:24:34;7.1;;;1.5;;
82805;SDS011;72558;51.000;-3.112;2023-12-07T07:27:33;10.5;;;1.6;;
82805;SDS011;72558;51.000;-3.112;2023-12-07T07:30:34;8.6;;;1.8;;
82805;SDS011;72558;51.000;-3.112;2023-12-07T07:33:33;10.2;;;1.6;;
82805;SDS011;72558;51.000;-3.112;2023-12-07T07:36:34;7.1;;;1.3;;
82805;SDS011;72558;51.000;-3.112;2023-12-07T07:39:33;7.3;;;1.5;;
82805;SDS011;72558;51.000;-3.112;2023-12-07T07:42:33;8.9;;;1.6;;
82805;SDS011;72558;51.000;-3.112;2023-12-07T07:45:34;8.3;;;1.5;;
82805;SDS011;72558;51.000;-3.112;2023-12-07T07:48:33;9.2;;;1.9;;
82805;SDS011;72558;51.000;-3.112;2023-12-07T07:51:34;7.2;;;1.7;;
82805;SDS011;72558;51.000;-3.112;2023-12-07T07:54:34;7.7;;;1.5;;
82805;SDS011;72558;51.000;-3.112;2023-12-07T07:57:34;8.8;;;2.4;;
82805;SDS011;72558;51.000;-3.112;2023-12-07T08:00:34;8.5;;;1.3;;
82805;SDS011;72558;51.000;-3.112;2023-12-07T08:03:33;7.6;;;1.7;;
82805;SDS011;72558;51.000;-3.112;2023-12-07T08:06:34;5.3;;;1.7;;
82805;SDS011;72558;51.000;-3.112;2023-12-07T08:09:33;5.4;;;1.3;;
82805;SDS011;72558;51.000;-3.112;2023-12-07T08:12:34;9.0;;;1.4;;
82805;SDS011;72558;51.000;-3.112;2023-12-07T08:15:34;7.0;;;1.2;;
82805;SDS011;72558;51.000;-3.112;2023-12-07T08:18:34;5.9;;;1.2;;
82805;SDS011;72558;51.000;-3.112;2023-12-07T08:21:34;6.2;;;1.3;;
82805;SDS011;72558;51.000;-3.112;2023-12-07T08:24:34;6.3;;;1.3;;
82805;SDS011;72558;51.000;-3.112;2023-12-07T08:27:34;7.6;;;1.3;;
82805;SDS011;72558;51.000;-3.112;2023-12-07T08:30:33;6.0;;;1.2;;
82805;SDS011;72558;51.000;-3.112;2023-12-07T08:33:34;6.5;;;1.5;;
82805;SDS011;72558;51.000;-3.112;2023-12-07T08:36:33;5.2;;;1.0;;
82805;SDS011;72558;51.000;-3.112;2023-12-07T08:39:33;6.0;;;1.3;;
82805;SDS011;72558;51.000;-3.112;2023-12-07T08:42:34;7.8;;;1.1;;
82805;SDS011;72558;51.000;-3.112;2023-12-07T08:45:34;8.6;;;1.5;;
82805;SDS011;72558;51.000;-3.112;2023-12-07T08:48:33;6.2;;;1.2;;
82805;SDS011;72558;51.000;-3.112;2023-12-07T08:51:33;6.7;;;1.2;;
82805;SDS011;72558;51.000;-3.112;2023-12-07T08:54:34;6.7;;;1.2;;
82805;SDS011;72558;51.000;-3.112;2023-12-07T08:57:34;10.4;;;1.9;;
82805;SDS011;72558;51.000;-3.112;2023-12-07T09:00:34;9.3;;;2.3;;
82805;SDS011;72558;51.000;-3.112;2023-12-07T09:03:34;7.8;;;1.7;;
82805;SDS011;72558;51.000;-3.112;2023-12-07T09:06:33;8.5;;;1.8;;
82805;SDS011;72558;51.000;-3.112;2023-12-07T09:09:34;8.7;;;1.6;;
82805;SDS011;72558;51.000;-3.112;2023-12-07T09:12:34;7.7;;;1.6;;
82805;SDS011;72558;51.000;-3.112;2023-12-07T09:15:33;8.8;;;1.6;;
82805;SDS011;72558;51.000;-3.112;2023-12-07T09:18:34;9.6;;;1.5;;
82805;SDS011;72558;51.000;-3.112;2023-12-07T09:21:33;7.5;;;1.7;;
82805;SDS011;72558;51.000;-3.112;2023-12-07T09:24:34;12.3;;;2.3;;
82805;SDS011;72558;51.000;-3.112;2023-12-07T09:27:33;9.4;;;2.1;;
82805;SDS011;72558;51.000;-3.112;2023-12-07T09:30:33;9.4;;;1.6;;
82805;SDS011;72558;51.000;-3.112;2023-12-07T09:33:33;10.1;;;1.9;;
82805;SDS011;72558;51.000;-3.112;2023-12-07T09:36:34;12.4;;;2.2;;
82805;SDS011;72558;51.000;-3.112;2023-12-07T09:39:34;11.9;;;1.6;;
82805;SDS011;72558;51.000;-3.112;2023-12-07T09:42:34;11.9;;;1.8;;
82805;SDS011;72558;51.000;-3.112;2023-12-07T09:45:34;9.3;;;1.7;;
82805;SDS011;72558;51.000;-3.112;2023-12-07T09:48:34;10.6;;;1.8;;
82805;SDS011;72558;51.000;-3.112;2023-12-07T09:51:33;7.2;;;1.2;;
82805;SDS011;72558;51.000;-3.112;2023-12-07T09:54:34;7.0;;;0.8;;
82805;SDS011;72558;51.000;-3.112;2023-12-07T09:57:34;5.9;;;1.0;;
82805;SDS011;72558;51.000;-3.112;2023-12-07T10:00:33;6.9;;;0.7;;
82805;SDS011;72558;51.000;-3.112;2023-12-07T10:03:34;5.5;;;0.9;;
82805;SDS011;72558;51.000;-3.112;2023-12-07T10:06:34;2.6;;;0.5;;
82805;SDS011;72558;51.000;-3.112;2023-12-07T10:09:34;3.4;;;0.6;;
82805;SDS011;72558;51.000;-3.112;2023-12-07T10:12:34;2.7;;;0.5;;
82805;SDS011;72558;51.000;-3.112;2023-12-07T10:15:34;5.1;;;0.8;;
82805;SDS011;72558;51.000;-3.112;2023-12-07T10:18:33;3.7;;;0.6;;
82805;SDS011;72558;51.000;-3.112;2023-12-07T10:21:34;4.3;;;0.6;;
82805;SDS011;72558;51.000;-3.112;2023-12-07T10:24:33;3.0;;;0.5;;
82805;SDS011;72558;51.000;-3.112;2023-12-07T10:27:33;3.3;;;0.4;;
82805;SDS011;72558;51.000;-3.112;2023-12-07T10:30:33;2.4;;;0.4;;
82805;SDS011;72558;51.000;-3.112;2023-12-07T10:33:34;2.6;;;0.5;;
82805;SDS011;72558;51.000;-3.112;2023-12-07T10:36:34;1.7;;;0.3;;
82805;SDS011;72558;51.000;-3.112;2023-12-07T10:39:34;1.7;;;0.3;;
82805;SDS011;72558;51.000;-3.112;2023-12-07T10:42:34;2.9;;;0.4;;
82805;SDS011;72558;51.000;-3.112;2023-12-07T10:45:34;1.3;;;0.5;;
82805;SDS011;72558;51.000;-3.112;2023-12-07T10:48:34;2.0;;;0.4;;
82805;SDS011;72558;51.000;-3.112;2023-12-07T10:51:34;3.0;;;0.3;;
82805;SDS011;72558;51.000;-3.112;2023-12-07T10:54:34;1.0;;;0.3;;
82805;SDS011;72558;51.000;-3.112;2023-12-07T10:57:34;2.1;;;0.4;;
82805;SDS011;72558;51.000;-3.112;2023-12-07T11:00:34;1.1;;;0.2;;
82805;SDS011;72558;51.000;-3.112;2023-12-07T11:03:34;1.9;;;0.4;;
82805;SDS011;72558;51.000;-3.112;2023-12-07T11:06:34;1.6;;;0.3;;
82805;SDS011;72558;51.000;-3.112;2023-12-07T11:09:34;1.9;;;0.3;;
82805;SDS011;72558;51.000;-3.112;2023-12-07T11:12:34;1.5;;;0.3;;
82805;SDS011;72558;51.000;-3.112;2023-12-07T11:15:34;2.7;;;0.5;;
82805;SDS011;72558;51.000;-3.112;2023-12-07T11:18:34;2.1;;;0.5;;
82805;SDS011;72558;51.000;-3.112;2023-12-07T11:21:33;4.3;;;0.6;;
82805;SDS011;72558;51.000;-3.112;2023-12-07T11:24:34;4.8;;;0.7;;
82805;SDS011;72558;51.000;-3.112;2023-12-07T11:27:34;3.6;;;0.6;;
82805;SDS011;72558;51.000;-3.112;2023-12-07T11:30:33;6.7;;;0.7;;
82805;SDS011;72558;51.000;-3.112;2023-12-07T11:33:34;3.7;;;0.4;;
82805;SDS011;72558;51.000;-3.112;2023-12-07T11:36:34;5.5;;;0.5;;
82805;SDS011;72558;51.000;-3.112;2023-12-07T11:39:33;4.1;;;0.6;;
82805;SDS011;72558;51.000;-3.112;2023-12-07T11:42:33;4.5;;;0.7;;
82805;SDS011;72558;51.000;-3.112;2023-12-07T11:45:33;6.7;;;0.8;;
82805;SDS011;72558;51.000;-3.112;2023-12-07T11:48:34;3.0;;;0.5;;
82805;SDS011;72558;51.000;-3.112;2023-12-07T11:51:34;3.1;;;0.4;;
82805;SDS011;72558;51.000;-3.112;2023-12-07T11:54:34;3.7;;;0.7;;
82805;SDS011;72558;51.000;-3.112;2023-12-07T11:57:34;1.7;;;0.4;;
82805;SDS011;72558;51.000;-3.112;2023-12-07T12:00:34;3.1;;;0.5;;
82805;SDS011;72558;51.000;-3.112;2023-12-07T12:03:34;3.3;;;0.4;;
82805;SDS011;72558;51.000;-3.112;2023-12-07T12:06:34;4.3;;;0.3;;
82805;SDS011;72558;51.000;-3.112;2023-12-07T12:09:34;2.6;;;0.3;;
82805;SDS011;72558;51.000;-3.112;2023-12-07T12:12:33;4.1;;;0.3;;
82805;SDS011;72558;51.000;-3.112;2023-12-07T12:15:33;2.5;;;0.3;;
82805;SDS011;72558;51.000;-3.112;2023-12-07T12:18:34;2.7;;;0.5;;
82805;SDS011;72558;51.000;-3.112;2023-12-07T12:21:34;2.5;;;0.3;;
82805;SDS011;72558;51.000;-3.112;2023-12-07T12:24:34;3.0;;;0.6;;
82805;SDS011;72558;51.000;-3.112;2023-12-07T12:27:33;3.4;;;0.5;;
82805;SDS011;72558;51.000;-3.112;2023-12-07T12:30:34;3.9;;;0.4;;
82805;SDS011;72558;51.000;-3.112;2023-12-07T12:33:33;3.3;;;0.3;;
82805;SDS011;72558;51.000;-3.112;2023-12-07T12:36:34;2.5;;;0.4;;
82805;SDS011;72558;51.000;-3.112;2023-12-07T12:39:34;3.8;;;0.5;;
82805;SDS011;72558;51.000;-3.112;2023-12-07T12:42:33;2.8;;;0.5;;
82805;SDS011;72558;51.000;-3.112;2023-12-07T12:45:33;2.7;;;0.3;;
82805;SDS011;72558;51.000;-3.112;2023-12-07T12:48:34;2.3;;;0.4;;
82805;SDS011;72558;51.000;-3.112;2023-12-07T12:51:34;4.1;;;0.6;;
82805;SDS011;72558;51.000;-3.112;2023-12-07T12:54:33;3.2;;;0.3;;
82805;SDS011;72558;51.000;-3.112;2023-12-07T12:57:34;3.9;;;0.4;;
82805;SDS011;72558;51.000;-3.112;2023-12-07T13:00:34;3.5;;;0.4;;
82805;SDS011;72558;51.000;-3.112;2023-12-07T13:03:33;3.4;;;0.4;;
82805;SDS011;72558;51.000;-3.112;2023-12-07T13:06:34;3.8;;;0.3;;
82805;SDS011;72558;51.000;-3.112;2023-12-07T13:09:34;2.9;;;0.3;;
82805;SDS011;72558;51.000;-3.112;2023-12-07T13:12:33;2.8;;;0.3;;
82805;SDS011;72558;51.000;-3.112;2023-12-07T13:15:34;2.4;;;0.3;;
82805;SDS011;72558;51.000;-3.112;2023-12-07T13:18:33;2.5;;;0.3;;
82805;SDS011;72558;51.000;-3.112;2023-12-07T13:21:34;2.5;;;0.4;;
82805;SDS011;72558;51.000;-3.112;2023-12-07T13:24:34;2.6;;;0.6;;
82805;SDS011;72558;51.000;-3.112;2023-12-07T13:27:33;3.1;;;0.3;;
82805;SDS011;72558;51.000;-3.112;2023-12-07T13:30:34;3.9;;;0.4;;
82805;SDS011;72558;51.000;-3.112;2023-12-07T13:33:33;4.2;;;0.6;;
82805;SDS011;72558;51.000;-3.112;2023-12-07T13:36:34;3.8;;;0.4;;
82805;SDS011;72558;51.000;-3.112;2023-12-07T13:39:33;3.5;;;0.4;;
82805;SDS011;72558;51.000;-3.112;2023-12-07T13:42:34;3.1;;;0.4;;
82805;SDS011;72558;51.000;-3.112;2023-12-07T13:45:34;3.2;;;0.6;;
82805;SDS011;72558;51.000;-3.112;2023-12-07T13:48:34;5.4;;;0.6;;
82805;SDS011;72558;51.000;-3.112;2023-12-07T13:51:34;3.3;;;0.6;;
82805;SDS011;72558;51.000;-3.112;2023-12-07T13:54:33;6.3;;;0.7;;
82805;SDS011;72558;51.000;-3.112;2023-12-07T13:57:34;3.0;;;0.6;;
82805;SDS011;72558;51.000;-3.112;2023-12-07T14:00:34;3.8;;;0.7;;
82805;SDS011;72558;51.000;-3.112;2023-12-07T14:03:34;5.1;;;0.4;;
82805;SDS011;72558;51.000;-3.112;2023-12-07T14:06:34;3.5;;;0.6;;
82805;SDS011;72558;51.000;-3.112;2023-12-07T14:09:34;4.5;;;0.4;;
82805;SDS011;72558;51.000;-3.112;2023-12-07T14:12:33;5.9;;;0.5;;
82805;SDS011;72558;51.000;-3.112;2023-12-07T14:15:34;5.3;;;0.6;;
82805;SDS011;72558;51.000;-3.112;2023-12-07T14:18:34;7.1;;;0.9;;
82805;SDS011;72558;51.000;-3.112;2023-12-07T14:21:33;4.2;;;0.6;;
82805;SDS011;72558;51.000;-3.112;2023-12-07T14:24:34;6.3;;;0.6;;
82805;SDS011;72558;51.000;-3.112;2023-12-07T14:27:34;5.7;;;0.8;;
82805;SDS011;72558;51.000;-3.112;2023-12-07T14:30:34;4.6;;;0.9;;
82805;SDS011;72558;51.000;-3.112;2023-12-07T14:33:34;5.4;;;0.6;;
82805;SDS011;72558;51.000;-3.112;2023-12-07T14:36:34;5.0;;;1.1;;
82805;SDS011;72558;51.000;-3.112;2023-12-07T14:39:34;3.0;;;0.6;;
82805;SDS011;72558;51.000;-3.112;2023-12-07T14:42:34;4.4;;;0.7;;
82805;SDS011;72558;51.000;-3.112;2023-12-07T14:45:34;4.7;;;0.6;;
82805;SDS011;72558;51.000;-3.112;2023-12-07T14:48:34;3.2;;;0.5;;
82805;SDS011;72558;51.000;-3.112;2023-12-07T14:51:33;2.6;;;0.4;;
82805;SDS011;72558;51.000;-3.112;2023-12-07T14:54:34;3.1;;;0.4;;
82805;SDS011;72558;51.000;-3.112;2023-12-07T14:57:33;2.7;;;0.5;;
82805;SDS011;72558;51.000;-3.112;2023-12-07T15:00:34;1.7;;;0.3;;
82805;SDS011;72558;51.000;-3.112;2023-12-07T15:03:34;4.0;;;0.6;;
82805;SDS011;72558;51.000;-3.112;2023-12-07T15:06:34;1.7;;;0.6;;
82805;SDS011;72558;51.000;-3.112;2023-12-07T15:09:34;2.0;;;0.3;;
82805;SDS011;72558;51.000;-3.112;2023-12-07T15:12:34;2.4;;;0.4;;
82805;SDS011;72558;51.000;-3.112;2023-12-07T15:15:34;2.5;;;0.5;;
82805;SDS011;72558;51.000;-3.112;2023-12-07T15:18:34;1.8;;;0.2;;
82805;SDS011;72558;51.000;-3.112;2023-12-07T15:21:34;4.0;;;0.4;;
82805;SDS011;72558;51.000;-3.112;2023-12-07T15:24:34;2.5;;;0.3;;
82805;SDS011;72558;51.000;-3.112;2023-12-07T15:27:34;1.7;;;0.4;;
82805;SDS011;72558;51.000;-3.112;2023-12-07T15:30:34;3.2;;;0.5;;
82805;SDS011;72558;51.000;-3.112;2023-12-07T15:33:34;2.7;;;0.4;;
82805;SDS011;72558;51.000;-3.112;2023-12-07T15:36:34;2.2;;;0.3;;
82805;SDS011;72558;51.000;-3.112;2023-12-07T15:39:34;1.1;;;0.3;;
82805;SDS011;72558;51.000;-3.112;2023-12-07T15:42:34;1.6;;;0.4;;
82805;SDS011;72558;51.000;-3.112;2023-12-07T15:45:33;1.9;;;0.2;;
82805;SDS011;72558;51.000;-3.112;2023-12-07T15:48:33;2.7;;;0.3;;
82805;SDS011;72558;51.000;-3.112;2023-12-07T15:51:34;3.6;;;0.4;;
82805;SDS011;72558;51.000;-3.112;2023-12-07T15:54:33;2.1;;;0.3;;
82805;SDS011;72558;51.000;-3.112;2023-12-07T15:57:34;1.7;;;0.3;;
82805;SDS011;72558;51.000;-3.112;2023-12-07T16:00:34;2.7;;;0.4;;
82805;SDS011;72558;51.000;-3.112;2023-12-07T16:03:33;2.5;;;0.5;;
82805;SDS011;72558;51.000;-3.112;2023-12-07T16:06:34;3.2;;;0.5;;
82805;SDS011;72558;51.000;-3.112;2023-12-07T16:09:34;4.1;;;0.4;;
82805;SDS011;72558;51.000;-3.112;2023-12-07T16:18:33;3.6;;;0.7;;
82805;SDS011;72558;51.000;-3.112;2023-12-07T16:21:34;5.2;;;0.7;;
82805;SDS011;72558;51.000;-3.112;2023-12-07T16:24:33;4.0;;;1.0;;
82805;SDS011;72558;51.000;-3.112;2023-12-07T16:27:34;5.4;;;1.3;;
82805;SDS011;72558;51.000;-3.112;2023-12-07T16:30:33;3.3;;;1.0;;
82805;SDS011;72558;51.000;-3.112;2023-12-07T16:33:34;5.3;;;1.6;;
82805;SDS011;72558;51.000;-3.112;2023-12-07T16:36:34;2.9;;;1.1;;
82805;SDS011;72558;51.000;-3.112;2023-12-07T16:39:36;5.3;;;1.4;;
82805;SDS011;72558;51.000;-3.112;2023-12-07T16:42:33;4.0;;;1.7;;
82805;SDS011;72558;51.000;-3.112;2023-12-07T16:45:33;4.7;;;1.5;;
82805;SDS011;72558;51.000;-3.112;2023-12-07T16:48:33;6.9;;;1.7;;
82805;SDS011;72558;51.000;-3.112;2023-12-07T16:51:34;5.0;;;1.5;;
82805;SDS011;72558;51.000;-3.112;2023-12-07T16:54:33;6.5;;;2.0;;
82805;SDS011;72558;51.000;-3.112;2023-12-07T16:57:34;6.3;;;2.0;;
82805;SDS011;72558;51.000;-3.112;2023-12-07T17:00:33;6.2;;;2.0;;
82805;SDS011;72558;51.000;-3.112;2023-12-07T17:03:34;8.7;;;2.8;;
82805;SDS011;72558;51.000;-3.112;2023-12-07T17:06:34;5.2;;;2.2;;
82805;SDS011;72558;51.000;-3.112;2023-12-07T17:09:34;7.8;;;3.3;;
82805;SDS011;72558;51.000;-3.112;2023-12-07T17:12:34;12.3;;;6.4;;
82805;SDS011;72558;51.000;-3.112;2023-12-07T17:15:34;9.8;;;5.6;;
82805;SDS011;72558;51.000;-3.112;2023-12-07T17:18:34;11.8;;;6.7;;
82805;SDS011;72558;51.000;-3.112;2023-12-07T17:21:34;11.7;;;6.9;;
82805;SDS011;72558;51.000;-3.112;2023-12-07T17:24:34;11.4;;;7.1;;
82805;SDS011;72558;51.000;-3.112;2023-12-07T17:27:34;15.1;;;10.2;;
82805;SDS011;72558;51.000;-3.112;2023-12-07T17:30:33;16.5;;;9.9;;
82805;SDS011;72558;51.000;-3.112;2023-12-07T17:33:34;14.9;;;8.0;;
82805;SDS011;72558;51.000;-3.112;2023-12-07T17:36:34;15.1;;;7.6;;
82805;SDS011;72558;51.000;-3.112;2023-12-07T17:39:34;13.9;;;6.4;;
82805;SDS011;72558;51.000;-3.112;2023-12-07T17:42:34;13.9;;;6.2;;
82805;SDS011;72558;51.000;-3.112;2023-12-07T17:45:34;16.0;;;7.8;;
82805;SDS011;72558;51.000;-3.112;2023-12-07T17:48:33;10.5;;;6.5;;
82805;SDS011;72558;51.000;-3.112;2023-12-07T17:51:34;14.6;;;7.3;;
82805;SDS011;72558;51.000;-3.112;2023-12-07T17:54:33;14.9;;;6.6;;
82805;SDS011;72558;51.000;-3.112;2023-12-07T17:57:34;17.4;;;7.2;;
82805;SDS011;72558;51.000;-3.112;2023-12-07T18:00:34;18.7;;;6.2;;
82805;SDS011;72558;51.000;-3.112;2023-12-07T18:03:34;18.3;;;4.7;;
82805;SDS011;72558;51.000;-3.112;2023-12-07T18:06:34;20.9;;;4.9;;
82805;SDS011;72558;51.000;-3.112;2023-12-07T18:09:33;27.0;;;4.0;;
82805;SDS011;72558;51.000;-3.112;2023-12-07T18:12:34;24.5;;;3.7;;
82805;SDS011;72558;51.000;-3.112;2023-12-07T18:15:33;34.3;;;4.4;;
82805;SDS011;72558;51.000;-3.112;2023-12-07T18:18:34;26.2;;;4.1;;
82805;SDS011;72558;51.000;-3.112;2023-12-07T18:21:34;33.6;;;5.0;;
82805;SDS011;72558;51.000;-3.112;2023-12-07T18:24:33;33.7;;;6.0;;